createdAt,value
2023-03-05T00:00:18.376Z,0.00
2023-03-05T00:02:44.749Z,3.09
2023-03-05T00:05:11.468Z,4.52
2023-03-05T00:07:37.815Z,5.31
2023-03-05T00:10:04.776Z,6.40
2023-03-05T00:12:31.481Z,9.55
2023-03-05T00:14:57.833Z,9.00
2023-03-05T00:17:24.208Z,8.51
2023-03-05T00:19:50.574Z,8.17
2023-03-05T00:22:16.988Z,7.68
2023-03-05T00:24:43.514Z,7.41
2023-03-05T00:27:09.863Z,7.52
2023-03-05T00:29:36.386Z,9.11
2023-03-05T00:32:02.757Z,10.70
2023-03-05T00:34:29.556Z,15.78
2023-03-05T00:36:56.117Z,15.26
2023-03-05T00:39:22.588Z,15.66
2023-03-05T00:41:49.111Z,15.56
2023-03-05T00:44:15.856Z,15.61
2023-03-05T00:46:42.256Z,16.12
2023-03-05T00:49:08.877Z,15.13
2023-03-05T00:51:35.341Z,15.59
2023-03-05T00:54:01.777Z,14.91
2023-03-05T00:56:28.185Z,14.63
2023-03-05T00:58:54.712Z,15.47
2023-03-05T01:01:21.110Z,16.21
2023-03-05T01:03:47.722Z,16.19
2023-03-05T01:06:15.105Z,13.96
2023-03-05T01:08:41.572Z,13.85
2023-03-05T01:11:08.769Z,13.56
2023-03-05T01:13:35.319Z,13.30
2023-03-05T01:16:02.025Z,13.45
2023-03-05T01:18:28.554Z,13.33
2023-03-05T01:20:54.957Z,13.03
2023-03-05T01:23:21.350Z,14.22
2023-03-05T01:25:56.204Z,14.68
2023-03-05T01:28:23.008Z,14.84
2023-03-05T01:30:49.358Z,15.41
2023-03-05T01:33:15.785Z,14.79
2023-03-05T01:35:42.393Z,14.63
2023-03-05T01:38:09.109Z,16.26
2023-03-05T01:40:35.672Z,16.11
2023-03-05T01:43:31.507Z,15.83
2023-03-05T01:46:13.103Z,15.90
2023-03-05T01:48:40.525Z,16.63
2023-03-05T01:51:06.926Z,17.23
2023-03-05T01:53:33.332Z,17.10
2023-03-05T01:55:59.675Z,17.50
2023-03-05T01:58:26.031Z,17.41
2023-03-05T02:00:53.227Z,18.23
2023-03-05T02:03:19.725Z,18.15
2023-03-05T02:05:46.129Z,18.41
2023-03-05T02:08:14.483Z,18.51
2023-03-05T02:10:54.247Z,18.25
2023-03-05T02:13:25.645Z,18.06
2023-03-05T02:15:53.010Z,17.58
2023-03-05T02:18:20.082Z,17.00
2023-03-05T02:20:50.670Z,17.58
2023-03-05T02:23:18.106Z,19.28
2023-03-05T02:25:44.556Z,21.14
2023-03-05T02:28:26.532Z,23.52
2023-03-05T02:30:52.898Z,26.35
2023-03-05T02:33:19.624Z,29.03
2023-03-05T02:35:46.439Z,32.04
2023-03-05T02:38:17.149Z,34.81
2023-03-05T02:40:43.716Z,38.20
2023-03-05T02:43:10.315Z,42.30
2023-03-05T02:45:37.151Z,46.49
2023-03-05T02:48:03.684Z,50.74
2023-03-05T02:50:30.122Z,54.86
2023-03-05T02:52:56.667Z,57.87
2023-03-05T02:55:23.503Z,61.55
2023-03-05T02:57:50.047Z,65.38
2023-03-05T03:00:17.073Z,69.75
2023-03-05T03:02:43.500Z,73.59
2023-03-05T03:05:09.956Z,77.50
2023-03-05T03:07:36.560Z,85.12
2023-03-05T03:10:04.339Z,94.09
2023-03-05T03:12:30.750Z,100.00
2023-03-05T03:14:57.090Z,100.00
2023-03-05T03:17:23.479Z,100.00
2023-03-05T03:19:49.820Z,100.00
2023-03-05T03:22:16.249Z,100.00
2023-03-05T03:24:42.793Z,100.00
2023-03-05T03:27:09.176Z,100.00
2023-03-05T03:29:36.869Z,100.00
2023-03-05T03:32:03.306Z,100.00
2023-03-05T03:34:29.678Z,100.00
2023-03-05T03:36:56.230Z,100.00
2023-03-05T03:39:22.684Z,100.00
2023-03-05T03:41:51.151Z,100.00
2023-03-05T03:44:18.970Z,100.00
2023-03-05T03:46:48.768Z,100.00
2023-03-05T03:49:20.220Z,100.00
2023-03-05T03:51:47.020Z,100.00
2023-03-05T03:54:13.934Z,100.00
2023-03-05T03:56:40.365Z,100.00
2023-03-05T03:59:06.726Z,100.00
2023-03-05T04:01:33.278Z,100.00
2023-03-05T04:03:59.649Z,100.00
2023-03-05T04:06:26.042Z,100.00
2023-03-05T04:08:52.608Z,100.00
2023-03-05T04:11:19.385Z,100.00
2023-03-05T04:13:49.088Z,100.00
2023-03-05T04:16:15.755Z,100.00
2023-03-05T04:18:42.155Z,100.00
2023-03-05T04:21:08.796Z,100.00
2023-03-05T04:23:35.430Z,100.00
2023-03-05T04:26:01.988Z,100.00
2023-03-05T04:28:28.373Z,100.00
2023-03-05T04:30:54.749Z,100.00
2023-03-05T04:33:21.387Z,100.00
2023-03-05T04:35:47.751Z,100.00
2023-03-05T04:38:14.385Z,100.00
2023-03-05T04:40:40.731Z,100.00
2023-03-05T04:43:07.133Z,100.00
2023-03-05T04:45:33.687Z,100.00
2023-03-05T04:48:00.147Z,100.00
2023-03-05T04:50:26.539Z,100.00
2023-03-05T04:52:53.008Z,100.00
2023-03-05T04:55:19.514Z,100.00
2023-03-05T04:57:46.000Z,100.00
2023-03-05T05:00:14.229Z,100.00
2023-03-05T05:02:42.252Z,100.00
2023-03-05T05:05:10.087Z,100.00
2023-03-05T05:07:36.472Z,100.00
2023-03-05T05:10:03.184Z,100.00
2023-03-05T05:12:30.547Z,100.00
2023-03-05T05:14:58.053Z,100.00
2023-03-05T05:17:24.487Z,100.00
2023-03-05T05:19:51.008Z,100.00
2023-03-05T05:22:17.418Z,100.00
2023-03-05T05:24:43.788Z,100.00
2023-03-05T05:27:10.235Z,100.00
2023-03-05T05:29:36.590Z,100.00
2023-03-05T05:32:03.022Z,100.00
2023-03-05T05:34:29.541Z,100.00
2023-03-05T05:36:55.876Z,100.00
2023-03-05T05:39:22.427Z,100.00
2023-03-05T05:41:52.224Z,100.00
2023-03-05T05:44:18.611Z,100.00
2023-03-05T05:46:45.197Z,100.00
2023-03-05T05:49:11.632Z,100.00
2023-03-05T05:51:38.284Z,100.00
2023-03-05T05:54:04.813Z,100.00
2023-03-05T05:56:31.167Z,100.00
2023-03-05T05:58:57.755Z,100.00
2023-03-05T06:01:26.380Z,100.00
2023-03-05T06:03:52.940Z,100.00
2023-03-05T06:06:20.681Z,100.00
2023-03-05T06:08:47.512Z,100.00
2023-03-05T06:11:14.188Z,100.00
2023-03-05T06:13:40.612Z,100.00
2023-03-05T06:16:09.465Z,100.00
2023-03-05T06:18:35.984Z,100.00
2023-03-05T06:21:08.164Z,100.00
2023-03-05T06:23:34.633Z,100.00
2023-03-05T06:26:04.806Z,100.00
2023-03-05T06:28:31.460Z,100.00
2023-03-05T06:31:05.485Z,100.00
2023-03-05T06:33:32.390Z,100.00
2023-03-05T06:35:58.842Z,100.00
2023-03-05T06:38:25.399Z,100.00
2023-03-05T06:40:51.956Z,100.00
2023-03-05T06:43:18.396Z,100.00
2023-03-05T06:45:45.016Z,100.00
2023-03-05T06:48:12.710Z,100.00
2023-03-05T06:50:39.922Z,100.00
2023-03-05T06:53:06.356Z,100.00
2023-03-05T06:55:39.569Z,100.00
2023-03-05T06:58:06.901Z,100.00
2023-03-05T07:00:33.362Z,100.00
2023-03-05T07:02:59.951Z,100.00
2023-03-05T07:05:26.299Z,100.00
2023-03-05T07:07:52.684Z,100.00
2023-03-05T07:10:19.425Z,100.00
2023-03-05T07:12:45.772Z,100.00
2023-03-05T07:15:12.565Z,100.00
2023-03-05T07:17:38.908Z,100.00
2023-03-05T07:20:05.917Z,100.00
2023-03-05T07:22:32.270Z,100.00
2023-03-05T07:24:58.680Z,100.00
2023-03-05T07:27:25.537Z,100.00
2023-03-05T07:29:51.906Z,100.00
2023-03-05T07:32:18.320Z,100.00
2023-03-05T07:34:44.732Z,100.00
2023-03-05T07:37:11.103Z,100.00
2023-03-05T07:39:37.563Z,100.00
2023-03-05T07:42:03.980Z,100.00
2023-03-05T07:44:30.348Z,100.00
2023-03-05T07:46:56.913Z,100.00
2023-03-05T07:49:23.723Z,100.00
2023-03-05T07:51:50.788Z,100.00
2023-03-05T07:54:17.316Z,100.00
2023-03-05T07:56:43.659Z,100.00
2023-03-05T07:59:12.061Z,100.00
2023-03-05T08:01:38.568Z,100.00
2023-03-05T08:04:05.430Z,100.00
2023-03-05T08:06:31.973Z,100.00
2023-03-05T08:08:58.989Z,100.00
2023-03-05T08:11:25.428Z,100.00
2023-03-05T08:13:51.830Z,100.00
2023-03-05T08:16:19.857Z,97.92
2023-03-05T08:18:46.694Z,90.86
2023-03-05T08:21:23.782Z,85.47
2023-03-05T08:23:50.191Z,82.47
2023-03-05T08:26:18.697Z,81.07
2023-03-05T08:28:45.094Z,80.89
2023-03-05T08:31:12.327Z,80.16
2023-03-05T08:33:38.822Z,82.64
2023-03-05T08:36:05.906Z,87.11
2023-03-05T08:38:32.259Z,91.41
2023-03-05T08:40:58.754Z,96.21
2023-03-05T08:43:25.240Z,95.24
2023-03-05T08:45:53.423Z,90.21
2023-03-05T08:48:20.443Z,91.28
2023-03-05T08:50:47.403Z,92.36
2023-03-05T08:53:13.786Z,91.69
2023-03-05T08:55:40.197Z,88.59
2023-03-05T08:58:06.774Z,88.93
2023-03-05T09:00:33.215Z,85.94
2023-03-05T09:02:59.587Z,83.67
2023-03-05T09:05:26.001Z,83.87
2023-03-05T09:07:52.352Z,81.38
2023-03-05T09:10:19.182Z,75.57
2023-03-05T09:12:45.622Z,70.26
2023-03-05T09:15:12.311Z,68.90
2023-03-05T09:17:39.210Z,66.76
2023-03-05T09:20:06.297Z,66.53
2023-03-05T09:22:32.670Z,67.89
2023-03-05T09:24:59.035Z,66.98
2023-03-05T09:27:25.513Z,65.43
2023-03-05T09:29:53.174Z,62.10
2023-03-05T09:32:19.588Z,66.57
2023-03-05T09:34:46.212Z,66.21
2023-03-05T09:37:12.761Z,65.01
2023-03-05T09:39:39.276Z,64.88
2023-03-05T09:42:20.770Z,64.49
2023-03-05T09:44:51.882Z,63.88
2023-03-05T09:47:50.011Z,64.12
2023-03-05T09:50:45.025Z,57.78
2023-03-05T09:53:36.512Z,49.84
2023-03-05T09:56:10.813Z,47.80
2023-03-05T09:58:42.606Z,50.97
2023-03-05T10:01:16.843Z,47.81
2023-03-05T10:03:58.269Z,57.90
2023-03-05T10:06:32.620Z,58.27
2023-03-05T10:09:13.561Z,59.10
2023-03-05T10:11:49.570Z,57.57
2023-03-05T10:14:26.700Z,69.03
2023-03-05T10:17:00.031Z,67.62
2023-03-05T10:19:26.359Z,77.71
2023-03-05T10:22:03.308Z,75.39
2023-03-05T10:24:49.224Z,74.42
2023-03-05T10:27:40.376Z,71.94
2023-03-05T10:30:43.801Z,73.89
2023-03-05T10:33:47.894Z,75.01
2023-03-05T10:36:24.326Z,81.33
2023-03-05T10:39:05.687Z,100.00
2023-03-05T10:42:02.563Z,100.00
2023-03-05T10:44:37.653Z,100.00
2023-03-05T10:47:07.620Z,100.00
2023-03-05T10:49:36.254Z,100.00
2023-03-05T10:52:06.590Z,100.00
2023-03-05T10:54:33.753Z,100.00
2023-03-05T10:57:27.181Z,100.00
2023-03-05T11:00:02.589Z,100.00
2023-03-05T11:02:29.315Z,100.00
2023-03-05T11:04:55.707Z,78.67
2023-03-05T11:07:25.144Z,79.04
2023-03-05T11:10:01.915Z,89.74
2023-03-05T11:12:29.652Z,94.53
2023-03-05T11:15:05.732Z,96.02
2023-03-05T11:17:48.871Z,100.00
2023-03-05T11:20:27.576Z,100.00
2023-03-05T11:23:12.231Z,100.00
2023-03-05T11:26:01.904Z,100.00
2023-03-05T11:28:34.140Z,100.00
2023-03-05T11:31:20.240Z,100.00
2023-03-05T11:34:03.316Z,100.00
2023-03-05T11:36:29.748Z,100.00
2023-03-05T11:39:09.740Z,100.00
2023-03-05T11:41:44.444Z,100.00
2023-03-05T11:44:25.990Z,100.00
2023-03-05T11:47:21.603Z,100.00
2023-03-05T11:49:50.151Z,100.00
2023-03-05T11:52:26.572Z,100.00
2023-03-05T11:54:56.852Z,100.00
2023-03-05T11:57:24.380Z,100.00
2023-03-05T11:59:51.962Z,100.00
2023-03-05T12:02:25.646Z,100.00
2023-03-05T12:04:52.370Z,100.00
2023-03-05T12:07:23.030Z,100.00
2023-03-05T12:09:50.634Z,100.00
2023-03-05T12:12:30.848Z,100.00
2023-03-05T12:15:01.459Z,100.00
2023-03-05T12:18:23.671Z,100.00
2023-03-05T12:21:15.143Z,100.00
2023-03-05T12:23:46.624Z,100.00
2023-03-05T12:26:13.090Z,100.00
2023-03-05T12:28:42.886Z,100.00
2023-03-05T12:31:09.414Z,100.00
2023-03-05T12:33:36.831Z,100.00
2023-03-05T12:36:21.640Z,100.00
2023-03-05T12:38:51.843Z,100.00
2023-03-05T12:41:25.879Z,100.00
2023-03-05T12:44:05.456Z,100.00
2023-03-05T12:46:38.949Z,100.00
2023-03-05T12:49:21.163Z,100.00
2023-03-05T12:51:48.241Z,100.00
2023-03-05T12:54:28.549Z,100.00
2023-03-05T12:56:56.108Z,100.00
2023-03-05T12:59:24.090Z,100.00
2023-03-05T13:01:55.011Z,100.00
2023-03-05T13:04:29.889Z,100.00
2023-03-05T13:07:12.045Z,100.00
2023-03-05T13:09:38.496Z,100.00
2023-03-05T13:12:06.439Z,100.00
2023-03-05T13:14:46.314Z,100.00
2023-03-05T13:17:39.137Z,100.00
2023-03-05T13:20:34.282Z,100.00
2023-03-05T13:23:04.467Z,100.00
2023-03-05T13:25:30.879Z,100.00
2023-03-05T13:28:10.475Z,100.00
2023-03-05T13:30:36.902Z,100.00
2023-03-05T13:33:04.098Z,100.00
2023-03-05T13:35:33.907Z,100.00
2023-03-05T13:38:00.812Z,100.00
2023-03-05T13:40:29.226Z,100.00
2023-03-05T13:42:56.940Z,100.00
2023-03-05T13:45:24.780Z,100.00
2023-03-05T13:48:01.907Z,100.00
2023-03-05T13:50:35.180Z,100.00
2023-03-05T13:53:28.490Z,100.00
2023-03-05T13:56:15.734Z,100.00
2023-03-05T13:58:54.859Z,100.00
2023-03-05T14:01:24.270Z,100.00
2023-03-05T14:03:51.654Z,100.00
2023-03-05T14:06:21.993Z,100.00
2023-03-05T14:08:50.904Z,100.00
2023-03-05T14:11:17.568Z,100.00
2023-03-05T14:13:44.085Z,100.00
2023-03-05T14:16:10.481Z,100.00
2023-03-05T14:18:37.018Z,100.00
2023-03-05T14:21:09.051Z,100.00
2023-03-05T14:23:38.478Z,100.00
2023-03-05T14:26:27.501Z,100.00
2023-03-05T14:29:03.559Z,100.00
2023-03-05T14:31:32.892Z,100.00
2023-03-05T14:34:04.189Z,100.00
2023-03-05T14:36:30.700Z,100.00
2023-03-05T14:38:57.300Z,100.00
2023-03-05T14:41:34.256Z,100.00
2023-03-05T14:44:01.255Z,100.00
2023-03-05T14:46:28.589Z,100.00
2023-03-05T14:48:55.106Z,100.00
2023-03-05T14:51:21.875Z,100.00
2023-03-05T14:53:48.347Z,100.00
2023-03-05T14:56:22.515Z,100.00
2023-03-05T14:58:48.892Z,100.00
2023-03-05T15:01:15.703Z,100.00
2023-03-05T15:03:42.339Z,100.00
2023-03-05T15:06:16.356Z,100.00
2023-03-05T15:08:43.035Z,100.00
2023-03-05T15:11:11.351Z,100.00
2023-03-05T15:13:37.846Z,100.00
2023-03-05T15:16:04.971Z,100.00
2023-03-05T15:18:31.429Z,100.00
2023-03-05T15:20:57.833Z,100.00
2023-03-05T15:23:24.556Z,100.00
2023-03-05T15:25:50.984Z,100.00
2023-03-05T15:28:17.428Z,100.00
2023-03-05T15:30:45.452Z,100.00
2023-03-05T15:33:15.922Z,100.00
2023-03-05T15:35:42.419Z,100.00
2023-03-05T15:38:08.919Z,100.00
2023-03-05T15:40:35.394Z,100.00
2023-03-05T15:43:02.076Z,100.00
2023-03-05T15:45:31.213Z,100.00
2023-03-05T15:47:57.630Z,100.00
2023-03-05T15:50:24.026Z,100.00
2023-03-05T15:52:50.477Z,100.00
2023-03-05T15:55:18.545Z,100.00
2023-03-05T15:57:46.800Z,100.00
2023-03-05T16:00:14.016Z,100.00
2023-03-05T16:02:40.453Z,100.00
2023-03-05T16:05:07.496Z,100.00
2023-03-05T16:07:34.172Z,100.00
2023-03-05T16:10:00.530Z,100.00
2023-03-05T16:12:28.577Z,100.00
2023-03-05T16:14:55.434Z,100.00
2023-03-05T16:17:21.827Z,100.00
2023-03-05T16:19:49.853Z,100.00
2023-03-05T16:22:16.221Z,100.00
2023-03-05T16:24:42.573Z,100.00
2023-03-05T16:27:09.063Z,100.00
2023-03-05T16:29:35.452Z,100.00
2023-03-05T16:32:02.856Z,100.00
2023-03-05T16:34:29.507Z,100.00
2023-03-05T16:36:56.106Z,100.00
2023-03-05T16:39:22.781Z,100.00
2023-03-05T16:41:49.922Z,100.00
2023-03-05T16:44:16.344Z,100.00
2023-03-05T16:46:43.829Z,100.00
2023-03-05T16:49:10.271Z,100.00
2023-03-05T16:51:36.708Z,100.00
2023-03-05T16:54:03.223Z,100.00
2023-03-05T16:56:29.736Z,100.00
2023-03-05T16:58:56.350Z,100.00
2023-03-05T17:01:22.884Z,100.00
2023-03-05T17:03:49.523Z,100.00
2023-03-05T17:06:17.899Z,100.00
2023-03-05T17:08:44.575Z,100.00
2023-03-05T17:11:12.346Z,100.00
2023-03-05T17:13:38.940Z,100.00
2023-03-05T17:16:06.020Z,100.00
2023-03-05T17:18:32.462Z,100.00
2023-03-05T17:20:59.119Z,100.00
2023-03-05T17:23:25.545Z,100.00
2023-03-05T17:25:52.081Z,100.00
2023-03-05T17:28:18.730Z,100.00
2023-03-05T17:30:45.279Z,100.00
2023-03-05T17:33:11.901Z,100.00
2023-03-05T17:35:38.579Z,100.00
2023-03-05T17:38:07.369Z,100.00
2023-03-05T17:40:34.279Z,100.00
2023-03-05T17:43:00.720Z,100.00
2023-03-05T17:45:27.255Z,100.00
2023-03-05T17:47:53.643Z,100.00
2023-03-05T17:50:20.023Z,100.00
2023-03-05T17:52:46.395Z,100.00
2023-03-05T17:55:14.810Z,100.00
2023-03-05T17:57:42.139Z,100.00
2023-03-05T18:00:19.541Z,100.00
2023-03-05T18:02:46.231Z,100.00
2023-03-05T18:05:12.662Z,100.00
2023-03-05T18:07:39.131Z,84.89
2023-03-05T18:10:05.996Z,76.29
2023-03-05T18:12:32.486Z,72.45
2023-03-05T18:14:59.182Z,63.27
2023-03-05T18:17:25.596Z,48.87
2023-03-05T18:19:52.235Z,46.34
2023-03-05T18:22:18.612Z,36.10
2023-03-05T18:24:44.962Z,32.53
2023-03-05T18:27:11.326Z,29.36
2023-03-05T18:29:37.667Z,24.79
2023-03-05T18:32:04.198Z,18.17
2023-03-05T18:34:30.616Z,5.56
2023-03-05T18:36:56.974Z,2.98
2023-03-05T18:39:23.362Z,1.77
2023-03-05T18:41:49.776Z,1.39
2023-03-05T18:44:16.208Z,0.00
2023-03-05T18:46:42.593Z,0.00
2023-03-05T18:49:11.928Z,0.00
2023-03-05T18:51:40.205Z,0.00
2023-03-05T18:54:06.658Z,0.00
2023-03-05T18:56:33.237Z,0.32
2023-03-05T18:58:59.665Z,0.00
2023-03-05T19:01:26.067Z,0.00
2023-03-05T19:03:52.614Z,0.00
2023-03-05T19:06:19.143Z,1.01
2023-03-05T19:08:45.628Z,1.77
2023-03-05T19:11:19.572Z,2.45
2023-03-05T19:13:50.464Z,4.27
2023-03-05T19:16:18.782Z,5.44
2023-03-05T19:19:11.632Z,6.31
2023-03-05T19:21:38.008Z,6.81
2023-03-05T19:24:04.682Z,7.18
2023-03-05T19:26:31.058Z,19.89
2023-03-05T19:28:57.485Z,19.01
2023-03-05T19:31:23.943Z,22.94
2023-03-05T19:33:50.431Z,26.00
2023-03-05T19:36:16.787Z,28.41
2023-03-05T19:38:43.235Z,30.96
2023-03-05T19:41:10.026Z,33.88
2023-03-05T19:43:36.654Z,39.53
2023-03-05T19:46:04.041Z,41.74
2023-03-05T19:48:31.110Z,58.85
2023-03-05T19:50:57.577Z,63.11
2023-03-05T19:53:23.972Z,64.54
2023-03-05T19:55:50.551Z,64.71
2023-03-05T19:58:17.079Z,66.08
2023-03-05T20:00:43.425Z,65.49
2023-03-05T20:03:10.024Z,64.97
2023-03-05T20:05:36.797Z,64.42
2023-03-05T20:08:03.345Z,64.49
2023-03-05T20:10:29.820Z,65.52
2023-03-05T20:12:57.680Z,66.54
2023-03-05T20:15:29.083Z,67.51
2023-03-05T20:17:57.239Z,77.71
2023-03-05T20:20:23.696Z,83.63
2023-03-05T20:22:50.091Z,84.78
2023-03-05T20:25:17.055Z,90.93
2023-03-05T20:27:43.747Z,92.67
2023-03-05T20:30:12.740Z,91.64
2023-03-05T20:32:39.119Z,91.68
2023-03-05T20:35:06.009Z,91.96
2023-03-05T20:37:40.087Z,92.90
2023-03-05T20:40:07.724Z,92.79
2023-03-05T20:42:34.208Z,92.79
2023-03-05T20:45:00.712Z,92.22
2023-03-05T20:47:40.612Z,93.77
2023-03-05T20:50:09.854Z,91.70
2023-03-05T20:52:37.390Z,93.30
2023-03-05T20:55:05.152Z,93.15
2023-03-05T20:57:31.542Z,93.14
2023-03-05T20:59:59.757Z,94.02
2023-03-05T21:02:26.915Z,93.49
2023-03-05T21:04:53.354Z,92.08
2023-03-05T21:07:19.798Z,93.47
2023-03-05T21:09:46.178Z,93.46
2023-03-05T21:12:12.523Z,96.49
2023-03-05T21:14:40.628Z,96.91
2023-03-05T21:17:07.968Z,99.02
2023-03-05T21:19:34.376Z,100.00
2023-03-05T21:22:00.747Z,100.00
2023-03-05T21:24:32.770Z,100.00
2023-03-05T21:26:59.177Z,100.00
2023-03-05T21:29:25.578Z,100.00
2023-03-05T21:31:51.976Z,100.00
2023-03-05T21:34:18.972Z,100.00
2023-03-05T21:36:45.496Z,100.00
2023-03-05T21:39:11.836Z,100.00
2023-03-05T21:41:38.262Z,100.00
2023-03-05T21:44:05.866Z,100.00
2023-03-05T21:46:32.317Z,100.00
2023-03-05T21:48:58.763Z,100.00
2023-03-05T21:51:38.260Z,100.00
2023-03-05T21:54:04.890Z,100.00
2023-03-05T21:56:31.874Z,100.00
2023-03-05T21:58:58.278Z,100.00
2023-03-05T22:01:24.948Z,100.00
2023-03-05T22:03:51.573Z,100.00
2023-03-05T22:06:18.307Z,100.00
2023-03-05T22:08:44.710Z,100.00
2023-03-05T22:11:12.085Z,100.00
2023-03-05T22:13:38.729Z,100.00
2023-03-05T22:16:05.977Z,100.00
2023-03-05T22:18:32.459Z,100.00
2023-03-05T22:20:59.079Z,100.00
2023-03-05T22:23:28.048Z,100.00
2023-03-05T22:25:57.938Z,100.00
2023-03-05T22:28:24.337Z,100.00
2023-03-05T22:30:50.948Z,100.00
2023-03-05T22:33:17.328Z,100.00
2023-03-05T22:35:44.512Z,100.00
2023-03-05T22:38:11.053Z,100.00
2023-03-05T22:40:40.777Z,100.00
2023-03-05T22:43:07.286Z,100.00
2023-03-05T22:45:33.710Z,100.00
2023-03-05T22:48:00.144Z,100.00
2023-03-05T22:50:26.781Z,100.00
2023-03-05T22:52:53.194Z,100.00
2023-03-05T22:55:19.595Z,100.00
2023-03-05T22:57:46.368Z,99.57
2023-03-05T23:00:14.924Z,98.36
2023-03-05T23:02:41.867Z,97.10
2023-03-05T23:05:08.975Z,93.47
2023-03-05T23:07:36.437Z,91.54
2023-03-05T23:10:04.405Z,91.13
2023-03-05T23:12:32.033Z,89.73
2023-03-05T23:15:02.394Z,88.66
2023-03-05T23:17:28.727Z,88.06
2023-03-05T23:19:55.279Z,88.46
2023-03-05T23:22:21.698Z,87.99
2023-03-05T23:24:48.068Z,87.95
2023-03-05T23:27:15.755Z,88.17
2023-03-05T23:30:16.078Z,88.69
2023-03-05T23:33:15.030Z,90.03
2023-03-05T23:35:43.260Z,90.60
2023-03-05T23:38:12.140Z,90.31
2023-03-05T23:40:43.651Z,92.13
2023-03-05T23:43:10.045Z,91.19
2023-03-05T23:45:36.504Z,91.92
2023-03-05T23:48:03.056Z,92.71
2023-03-05T23:50:31.604Z,94.38
2023-03-05T23:53:00.018Z,95.12
2023-03-05T23:55:33.175Z,97.87
2023-03-05T23:57:59.701Z,98.14
